sensor_id;sensor_type;location;lat;lon;timestamp;temperature;humidity
26990;DHT22;14537;47.788;11.858;2023-03-05T00:00:03;-0.70;99.90
26990;DHT22;14537;47.788;11.858;2023-03-05T00:02:29;-0.60;99.90
26990;DHT22;14537;47.788;11.858;2023-03-05T00:04:56;-0.60;99.90
26990;DHT22;14537;47.788;11.858;2023-03-05T00:07:21;-0.60;99.90
26990;DHT22;14537;47.788;11.858;2023-03-05T00:09:47;-0.50;99.90
26990;DHT22;14537;47.788;11.858;2023-03-05T00:12:13;-0.50;99.90
26990;DHT22;14537;47.788;11.858;2023-03-05T00:14:39;-0.40;99.90
26990;DHT22;14537;47.788;11.858;2023-03-05T00:17:04;-0.40;99.90
26990;DHT22;14537;47.788;11.858;2023-03-05T00:19:30;-0.50;99.90
26990;DHT22;14537;47.788;11.858;2023-03-05T00:21:55;-0.60;99.90
26990;DHT22;14537;47.788;11.858;2023-03-05T00:24:21;-0.60;99.90
26990;DHT22;14537;47.788;11.858;2023-03-05T00:26:47;-0.60;99.90
26990;DHT22;14537;47.788;11.858;2023-03-05T00:29:17;-0.50;99.90
26990;DHT22;14537;47.788;11.858;2023-03-05T00:31:44;-0.60;99.90
26990;DHT22;14537;47.788;11.858;2023-03-05T00:34:15;-0.60;99.90
26990;DHT22;14537;47.788;11.858;2023-03-05T00:36:49;-0.70;99.90
26990;DHT22;14537;47.788;11.858;2023-03-05T00:39:16;-0.70;99.90
26990;DHT22;14537;47.788;11.858;2023-03-05T00:41:42;-0.80;99.90
26990;DHT22;14537;47.788;11.858;2023-03-05T00:44:08;-0.70;99.90
26990;DHT22;14537;47.788;11.858;2023-03-05T00:46:34;-0.70;99.90
26990;DHT22;14537;47.788;11.858;2023-03-05T00:49:00;-0.70;99.90
26990;DHT22;14537;47.788;11.858;2023-03-05T00:51:26;-0.70;99.90
26990;DHT22;14537;47.788;11.858;2023-03-05T00:53:52;-0.70;99.90
26990;DHT22;14537;47.788;11.858;2023-03-05T00:56:17;-0.60;99.90
26990;DHT22;14537;47.788;11.858;2023-03-05T00:58:43;-0.60;99.90
26990;DHT22;14537;47.788;11.858;2023-03-05T01:01:09;-0.60;99.90
26990;DHT22;14537;47.788;11.858;2023-03-05T01:03:35;-0.60;99.90
26990;DHT22;14537;47.788;11.858;2023-03-05T01:06:08;-0.70;99.90
26990;DHT22;14537;47.788;11.858;2023-03-05T01:08:35;-0.70;99.90
26990;DHT22;14537;47.788;11.858;2023-03-05T01:11:02;-0.70;99.90
26990;DHT22;14537;47.788;11.858;2023-03-05T01:13:27;-0.80;99.90
26990;DHT22;14537;47.788;11.858;2023-03-05T01:15:53;-0.80;99.90
26990;DHT22;14537;47.788;11.858;2023-03-05T01:18:19;-0.70;99.90
26990;DHT22;14537;47.788;11.858;2023-03-05T01:20:45;-0.70;99.90
26990;DHT22;14537;47.788;11.858;2023-03-05T01:23:11;-0.60;99.90
26990;DHT22;14537;47.788;11.858;2023-03-05T01:25:37;-0.60;99.90
26990;DHT22;14537;47.788;11.858;2023-03-05T01:28:03;-0.60;99.90
26990;DHT22;14537;47.788;11.858;2023-03-05T01:30:29;-0.50;99.90
26990;DHT22;14537;47.788;11.858;2023-03-05T01:32:54;-0.60;99.90
26990;DHT22;14537;47.788;11.858;2023-03-05T01:35:23;-0.60;99.90
26990;DHT22;14537;47.788;11.858;2023-03-05T01:37:49;-0.60;99.90
26990;DHT22;14537;47.788;11.858;2023-03-05T01:40:19;-0.70;99.90
26990;DHT22;14537;47.788;11.858;2023-03-05T01:42:46;-0.60;99.90
26990;DHT22;14537;47.788;11.858;2023-03-05T01:45:15;-0.60;99.90
26990;DHT22;14537;47.788;11.858;2023-03-05T01:47:41;-0.70;99.90
26990;DHT22;14537;47.788;11.858;2023-03-05T01:50:13;-0.60;99.90
26990;DHT22;14537;47.788;11.858;2023-03-05T01:52:44;-0.60;99.90
26990;DHT22;14537;47.788;11.858;2023-03-05T01:55:13;-0.50;99.90
26990;DHT22;14537;47.788;11.858;2023-03-05T01:57:49;-0.50;99.90
26990;DHT22;14537;47.788;11.858;2023-03-05T02:00:24;-0.40;99.90
26990;DHT22;14537;47.788;11.858;2023-03-05T02:02:51;-0.40;99.90
26990;DHT22;14537;47.788;11.858;2023-03-05T02:05:23;-0.40;99.90
26990;DHT22;14537;47.788;11.858;2023-03-05T02:07:56;-0.40;99.90
26990;DHT22;14537;47.788;11.858;2023-03-05T02:10:26;-0.40;99.90
26990;DHT22;14537;47.788;11.858;2023-03-05T02:12:55;-0.40;99.90
26990;DHT22;14537;47.788;11.858;2023-03-05T02:15:22;-0.40;99.90
26990;DHT22;14537;47.788;11.858;2023-03-05T02:17:48;-0.30;99.90
26990;DHT22;14537;47.788;11.858;2023-03-05T02:20:20;-0.30;99.90
26990;DHT22;14537;47.788;11.858;2023-03-05T02:22:46;-0.20;99.90
26990;DHT22;14537;47.788;11.858;2023-03-05T02:25:21;-0.20;99.90
26990;DHT22;14537;47.788;11.858;2023-03-05T02:28:00;-0.30;99.90
26990;DHT22;14537;47.788;11.858;2023-03-05T02:30:28;-0.30;99.90
26990;DHT22;14537;47.788;11.858;2023-03-05T02:32:54;-0.30;99.90
26990;DHT22;14537;47.788;11.858;2023-03-05T02:35:19;-0.30;99.90
26990;DHT22;14537;47.788;11.858;2023-03-05T02:37:45;-0.20;99.90
26990;DHT22;14537;47.788;11.858;2023-03-05T02:40:12;-0.20;99.90
26990;DHT22;14537;47.788;11.858;2023-03-05T02:42:38;-0.20;99.90
26990;DHT22;14537;47.788;11.858;2023-03-05T02:45:04;-0.20;99.90
26990;DHT22;14537;47.788;11.858;2023-03-05T02:47:30;-0.20;99.90
26990;DHT22;14537;47.788;11.858;2023-03-05T02:49:56;-0.10;99.90
26990;DHT22;14537;47.788;11.858;2023-03-05T02:52:21;-0.20;99.90
26990;DHT22;14537;47.788;11.858;2023-03-05T02:54:48;-0.10;99.90
26990;DHT22;14537;47.788;11.858;2023-03-05T02:57:14;-0.10;99.90
26990;DHT22;14537;47.788;11.858;2023-03-05T02:59:40;0.00;99.90
26990;DHT22;14537;47.788;11.858;2023-03-05T03:02:06;0.00;99.90
26990;DHT22;14537;47.788;11.858;2023-03-05T03:04:31;0.10;99.90
26990;DHT22;14537;47.788;11.858;2023-03-05T03:06:57;0.10;99.90
26990;DHT22;14537;47.788;11.858;2023-03-05T03:09:23;0.00;99.90
26990;DHT22;14537;47.788;11.858;2023-03-05T03:11:48;-0.10;99.90
26990;DHT22;14537;47.788;11.858;2023-03-05T03:14:14;-0.10;99.90
26990;DHT22;14537;47.788;11.858;2023-03-05T03:16:39;-0.10;99.90
26990;DHT22;14537;47.788;11.858;2023-03-05T03:19:05;-0.20;99.90
26990;DHT22;14537;47.788;11.858;2023-03-05T03:21:31;-0.10;99.90
26990;DHT22;14537;47.788;11.858;2023-03-05T03:23:56;-0.10;99.90
26990;DHT22;14537;47.788;11.858;2023-03-05T03:26:22;-0.10;99.90
26990;DHT22;14537;47.788;11.858;2023-03-05T03:28:48;0.00;99.90
26990;DHT22;14537;47.788;11.858;2023-03-05T03:31:13;0.00;99.90
26990;DHT22;14537;47.788;11.858;2023-03-05T03:33:39;0.00;99.90
26990;DHT22;14537;47.788;11.858;2023-03-05T03:36:05;-0.10;99.90
26990;DHT22;14537;47.788;11.858;2023-03-05T03:38:31;0.00;99.90
26990;DHT22;14537;47.788;11.858;2023-03-05T03:40:57;0.00;99.90
26990;DHT22;14537;47.788;11.858;2023-03-05T03:43:22;0.00;99.90
26990;DHT22;14537;47.788;11.858;2023-03-05T03:45:48;0.00;99.90
26990;DHT22;14537;47.788;11.858;2023-03-05T03:48:14;0.00;99.90
26990;DHT22;14537;47.788;11.858;2023-03-05T03:50:40;0.00;99.90
26990;DHT22;14537;47.788;11.858;2023-03-05T03:53:06;0.00;99.90
26990;DHT22;14537;47.788;11.858;2023-03-05T03:55:32;0.00;99.90
26990;DHT22;14537;47.788;11.858;2023-03-05T03:57:58;0.00;99.90
26990;DHT22;14537;47.788;11.858;2023-03-05T04:00:23;0.00;99.90
26990;DHT22;14537;47.788;11.858;2023-03-05T04:02:49;-0.10;99.90
26990;DHT22;14537;47.788;11.858;2023-03-05T04:05:15;-0.10;99.90
26990;DHT22;14537;47.788;11.858;2023-03-05T04:07:40;-0.10;99.90
26990;DHT22;14537;47.788;11.858;2023-03-05T04:10:06;-0.10;99.90
26990;DHT22;14537;47.788;11.858;2023-03-05T04:12:32;-0.10;99.90
26990;DHT22;14537;47.788;11.858;2023-03-05T04:14:57;0.00;99.90
26990;DHT22;14537;47.788;11.858;2023-03-05T04:17:23;0.10;99.90
26990;DHT22;14537;47.788;11.858;2023-03-05T04:19:49;0.10;99.90
26990;DHT22;14537;47.788;11.858;2023-03-05T04:22:16;0.10;99.90
26990;DHT22;14537;47.788;11.858;2023-03-05T04:24:42;0.10;99.90
26990;DHT22;14537;47.788;11.858;2023-03-05T04:27:08;0.10;99.90
26990;DHT22;14537;47.788;11.858;2023-03-05T04:29:34;0.10;99.90
26990;DHT22;14537;47.788;11.858;2023-03-05T04:31:59;0.10;99.90
26990;DHT22;14537;47.788;11.858;2023-03-05T04:34:25;0.20;99.90
26990;DHT22;14537;47.788;11.858;2023-03-05T04:36:51;0.20;99.90
26990;DHT22;14537;47.788;11.858;2023-03-05T04:39:16;0.10;99.90
26990;DHT22;14537;47.788;11.858;2023-03-05T04:41:48;0.10;99.90
26990;DHT22;14537;47.788;11.858;2023-03-05T04:44:14;0.10;99.90
26990;DHT22;14537;47.788;11.858;2023-03-05T04:46:42;0.00;99.90
26990;DHT22;14537;47.788;11.858;2023-03-05T04:49:08;0.00;99.90
26990;DHT22;14537;47.788;11.858;2023-03-05T04:51:33;0.00;99.90
26990;DHT22;14537;47.788;11.858;2023-03-05T04:53:59;0.00;99.90
26990;DHT22;14537;47.788;11.858;2023-03-05T04:56:25;-0.10;99.90
26990;DHT22;14537;47.788;11.858;2023-03-05T04:58:50;0.00;99.90
26990;DHT22;14537;47.788;11.858;2023-03-05T05:01:16;-0.10;99.90
26990;DHT22;14537;47.788;11.858;2023-03-05T05:03:42;0.00;99.90
26990;DHT22;14537;47.788;11.858;2023-03-05T05:06:08;0.00;99.90
26990;DHT22;14537;47.788;11.858;2023-03-05T05:08:33;0.10;99.90
26990;DHT22;14537;47.788;11.858;2023-03-05T05:11:04;0.10;99.90
26990;DHT22;14537;47.788;11.858;2023-03-05T05:13:30;0.10;99.90
26990;DHT22;14537;47.788;11.858;2023-03-05T05:15:57;0.00;99.90
26990;DHT22;14537;47.788;11.858;2023-03-05T05:18:23;0.00;99.90
26990;DHT22;14537;47.788;11.858;2023-03-05T05:20:49;0.00;99.90
26990;DHT22;14537;47.788;11.858;2023-03-05T05:23:15;-0.10;99.90
26990;DHT22;14537;47.788;11.858;2023-03-05T05:25:41;-0.10;99.90
26990;DHT22;14537;47.788;11.858;2023-03-05T05:28:08;-0.20;99.90
26990;DHT22;14537;47.788;11.858;2023-03-05T05:30:34;-0.20;99.90
26990;DHT22;14537;47.788;11.858;2023-03-05T05:32:59;-0.20;99.90
26990;DHT22;14537;47.788;11.858;2023-03-05T05:35:25;-0.20;99.90
26990;DHT22;14537;47.788;11.858;2023-03-05T05:37:51;-0.20;99.90
26990;DHT22;14537;47.788;11.858;2023-03-05T05:40:16;-0.20;99.90
26990;DHT22;14537;47.788;11.858;2023-03-05T05:42:42;-0.20;99.90
26990;DHT22;14537;47.788;11.858;2023-03-05T05:45:10;-0.20;99.90
26990;DHT22;14537;47.788;11.858;2023-03-05T05:47:36;-0.20;99.90
26990;DHT22;14537;47.788;11.858;2023-03-05T05:50:03;-0.20;99.90
26990;DHT22;14537;47.788;11.858;2023-03-05T05:52:29;-0.20;99.90
26990;DHT22;14537;47.788;11.858;2023-03-05T05:54:54;-0.20;99.90
26990;DHT22;14537;47.788;11.858;2023-03-05T05:57:20;-0.10;99.90
26990;DHT22;14537;47.788;11.858;2023-03-05T05:59:46;-0.10;99.90
26990;DHT22;14537;47.788;11.858;2023-03-05T06:02:12;0.00;99.90
26990;DHT22;14537;47.788;11.858;2023-03-05T06:04:37;0.00;99.90
26990;DHT22;14537;47.788;11.858;2023-03-05T06:07:05;0.00;99.90
26990;DHT22;14537;47.788;11.858;2023-03-05T06:09:30;-0.10;99.90
26990;DHT22;14537;47.788;11.858;2023-03-05T06:11:56;-0.10;99.90
26990;DHT22;14537;47.788;11.858;2023-03-05T06:14:21;-0.10;99.90
26990;DHT22;14537;47.788;11.858;2023-03-05T06:16:47;-0.10;99.90
26990;DHT22;14537;47.788;11.858;2023-03-05T06:19:14;-0.10;99.90
26990;DHT22;14537;47.788;11.858;2023-03-05T06:21:40;-0.20;99.90
26990;DHT22;14537;47.788;11.858;2023-03-05T06:24:07;-0.10;99.90
26990;DHT22;14537;47.788;11.858;2023-03-05T06:26:33;-0.10;99.90
26990;DHT22;14537;47.788;11.858;2023-03-05T06:28:59;0.00;99.90
26990;DHT22;14537;47.788;11.858;2023-03-05T06:31:26;-0.10;99.90
26990;DHT22;14537;47.788;11.858;2023-03-05T06:33:57;0.00;99.90
26990;DHT22;14537;47.788;11.858;2023-03-05T06:36:24;-0.10;99.90
26990;DHT22;14537;47.788;11.858;2023-03-05T06:38:50;0.00;99.90
26990;DHT22;14537;47.788;11.858;2023-03-05T06:41:22;0.10;99.90
26990;DHT22;14537;47.788;11.858;2023-03-05T06:43:48;0.10;99.90
26990;DHT22;14537;47.788;11.858;2023-03-05T06:46:23;0.20;99.90
26990;DHT22;14537;47.788;11.858;2023-03-05T06:48:50;0.30;99.90
26990;DHT22;14537;47.788;11.858;2023-03-05T06:51:21;0.30;99.90
26990;DHT22;14537;47.788;11.858;2023-03-05T06:53:48;0.30;99.90
26990;DHT22;14537;47.788;11.858;2023-03-05T06:56:14;0.30;99.90
26990;DHT22;14537;47.788;11.858;2023-03-05T06:58:42;0.40;99.90
26990;DHT22;14537;47.788;11.858;2023-03-05T07:01:07;0.40;99.90
26990;DHT22;14537;47.788;11.858;2023-03-05T07:03:34;0.40;99.90
26990;DHT22;14537;47.788;11.858;2023-03-05T07:06:12;0.50;99.90
26990;DHT22;14537;47.788;11.858;2023-03-05T07:08:38;0.50;99.90
26990;DHT22;14537;47.788;11.858;2023-03-05T07:11:17;0.50;99.90
26990;DHT22;14537;47.788;11.858;2023-03-05T07:13:43;0.50;99.90
26990;DHT22;14537;47.788;11.858;2023-03-05T07:16:20;0.60;99.90
26990;DHT22;14537;47.788;11.858;2023-03-05T07:18:46;0.60;99.90
26990;DHT22;14537;47.788;11.858;2023-03-05T07:21:18;0.60;99.90
26990;DHT22;14537;47.788;11.858;2023-03-05T07:23:44;0.50;99.90
26990;DHT22;14537;47.788;11.858;2023-03-05T07:26:10;0.50;99.90
26990;DHT22;14537;47.788;11.858;2023-03-05T07:28:36;0.60;99.90
26990;DHT22;14537;47.788;11.858;2023-03-05T07:31:09;0.60;99.90
26990;DHT22;14537;47.788;11.858;2023-03-05T07:33:36;0.60;99.90
26990;DHT22;14537;47.788;11.858;2023-03-05T07:36:02;0.70;99.90
26990;DHT22;14537;47.788;11.858;2023-03-05T07:38:30;0.80;99.90
26990;DHT22;14537;47.788;11.858;2023-03-05T07:40:55;0.90;99.90
26990;DHT22;14537;47.788;11.858;2023-03-05T07:43:21;0.90;99.90
26990;DHT22;14537;47.788;11.858;2023-03-05T07:45:47;1.00;99.90
26990;DHT22;14537;47.788;11.858;2023-03-05T07:48:15;1.10;99.90
26990;DHT22;14537;47.788;11.858;2023-03-05T07:50:41;1.10;99.90
26990;DHT22;14537;47.788;11.858;2023-03-05T07:53:06;1.00;99.90
26990;DHT22;14537;47.788;11.858;2023-03-05T07:55:32;0.90;99.90
26990;DHT22;14537;47.788;11.858;2023-03-05T07:57:58;1.00;99.90
26990;DHT22;14537;47.788;11.858;2023-03-05T08:00:23;1.00;99.90
26990;DHT22;14537;47.788;11.858;2023-03-05T08:02:49;1.00;99.90
26990;DHT22;14537;47.788;11.858;2023-03-05T08:05:15;1.00;99.90
26990;DHT22;14537;47.788;11.858;2023-03-05T08:07:41;0.90;99.90
26990;DHT22;14537;47.788;11.858;2023-03-05T08:10:07;1.00;99.90
26990;DHT22;14537;47.788;11.858;2023-03-05T08:12:33;1.10;99.90
26990;DHT22;14537;47.788;11.858;2023-03-05T08:14:58;1.10;99.90
26990;DHT22;14537;47.788;11.858;2023-03-05T08:17:24;1.10;99.90
26990;DHT22;14537;47.788;11.858;2023-03-05T08:19:50;1.20;99.90
26990;DHT22;14537;47.788;11.858;2023-03-05T08:22:15;1.20;99.90
26990;DHT22;14537;47.788;11.858;2023-03-05T08:24:44;1.20;99.90
26990;DHT22;14537;47.788;11.858;2023-03-05T08:27:10;1.10;99.90
26990;DHT22;14537;47.788;11.858;2023-03-05T08:29:35;1.20;99.90
26990;DHT22;14537;47.788;11.858;2023-03-05T08:32:01;1.30;99.90
26990;DHT22;14537;47.788;11.858;2023-03-05T08:34:27;1.30;99.90
26990;DHT22;14537;47.788;11.858;2023-03-05T08:36:52;1.40;99.90
26990;DHT22;14537;47.788;11.858;2023-03-05T08:39:18;1.40;99.90
26990;DHT22;14537;47.788;11.858;2023-03-05T08:41:44;1.50;99.90
26990;DHT22;14537;47.788;11.858;2023-03-05T08:44:09;1.50;99.90
26990;DHT22;14537;47.788;11.858;2023-03-05T08:46:38;1.40;99.90
26990;DHT22;14537;47.788;11.858;2023-03-05T08:49:04;1.40;99.90
26990;DHT22;14537;47.788;11.858;2023-03-05T08:51:32;1.50;99.90
26990;DHT22;14537;47.788;11.858;2023-03-05T08:53:58;1.40;99.90
26990;DHT22;14537;47.788;11.858;2023-03-05T08:56:24;1.40;99.90
26990;DHT22;14537;47.788;11.858;2023-03-05T08:58:52;1.30;99.90
26990;DHT22;14537;47.788;11.858;2023-03-05T09:01:18;1.40;99.90
26990;DHT22;14537;47.788;11.858;2023-03-05T09:03:44;1.50;99.90
26990;DHT22;14537;47.788;11.858;2023-03-05T09:06:10;1.60;99.90
26990;DHT22;14537;47.788;11.858;2023-03-05T09:08:37;1.70;99.90
26990;DHT22;14537;47.788;11.858;2023-03-05T09:11:04;1.90;99.90
26990;DHT22;14537;47.788;11.858;2023-03-05T09:13:31;1.80;99.90
26990;DHT22;14537;47.788;11.858;2023-03-05T09:16:02;1.70;99.90
26990;DHT22;14537;47.788;11.858;2023-03-05T09:18:29;1.60;99.90
26990;DHT22;14537;47.788;11.858;2023-03-05T09:20:55;1.40;99.90
26990;DHT22;14537;47.788;11.858;2023-03-05T09:23:22;1.40;99.90
26990;DHT22;14537;47.788;11.858;2023-03-05T09:25:47;1.50;99.90
26990;DHT22;14537;47.788;11.858;2023-03-05T09:28:13;1.70;99.90
26990;DHT22;14537;47.788;11.858;2023-03-05T09:30:39;1.70;99.90
26990;DHT22;14537;47.788;11.858;2023-03-05T09:33:05;1.70;99.90
26990;DHT22;14537;47.788;11.858;2023-03-05T09:35:34;1.90;99.90
26990;DHT22;14537;47.788;11.858;2023-03-05T09:37:59;2.00;99.90
26990;DHT22;14537;47.788;11.858;2023-03-05T09:40:31;2.20;99.90
26990;DHT22;14537;47.788;11.858;2023-03-05T09:43:08;2.30;99.90
26990;DHT22;14537;47.788;11.858;2023-03-05T09:45:39;2.20;99.90
26990;DHT22;14537;47.788;11.858;2023-03-05T09:48:59;2.30;99.90
26990;DHT22;14537;47.788;11.858;2023-03-05T09:51:10;2.20;99.90
26990;DHT22;14537;47.788;11.858;2023-03-05T09:54:11;2.30;99.90
26990;DHT22;14537;47.788;11.858;2023-03-05T09:56:43;2.10;99.90
26990;DHT22;14537;47.788;11.858;2023-03-05T10:01:58;2.10;99.90
26990;DHT22;14537;47.788;11.858;2023-03-05T10:04:44;2.30;99.90
26990;DHT22;14537;47.788;11.858;2023-03-05T10:10:03;2.40;99.90
26990;DHT22;14537;47.788;11.858;2023-03-05T10:12:41;2.60;99.90
26990;DHT22;14537;47.788;11.858;2023-03-05T10:36:51;3.00;99.90
26990;DHT22;14537;47.788;11.858;2023-03-05T10:41:56;2.70;99.90
26990;DHT22;14537;47.788;11.858;2023-03-05T10:47:21;3.00;99.90
26990;DHT22;14537;47.788;11.858;2023-03-05T10:49:54;3.00;99.90
26990;DHT22;14537;47.788;11.858;2023-03-05T10:54:49;3.10;99.90
26990;DHT22;14537;47.788;11.858;2023-03-05T10:57:22;2.90;99.90
26990;DHT22;14537;47.788;11.858;2023-03-05T10:59:57;2.80;99.90
26990;DHT22;14537;47.788;11.858;2023-03-05T11:02:25;2.80;99.90
26990;DHT22;14537;47.788;11.858;2023-03-05T11:04:52;2.80;99.90
26990;DHT22;14537;47.788;11.858;2023-03-05T11:12:27;3.00;99.90
26990;DHT22;14537;47.788;11.858;2023-03-05T11:15:22;3.00;99.90
26990;DHT22;14537;47.788;11.858;2023-03-05T11:18:06;3.00;99.90
26990;DHT22;14537;47.788;11.858;2023-03-05T11:20:39;3.00;99.90
26990;DHT22;14537;47.788;11.858;2023-03-05T11:25:34;3.20;99.90
26990;DHT22;14537;47.788;11.858;2023-03-05T11:28:18;3.30;99.90
26990;DHT22;14537;47.788;11.858;2023-03-05T11:31:04;3.20;99.90
26990;DHT22;14537;47.788;11.858;2023-03-05T11:33:32;3.60;99.90
26990;DHT22;14537;47.788;11.858;2023-03-05T11:47:22;3.30;99.90
26990;DHT22;14537;47.788;11.858;2023-03-05T11:49:54;3.10;99.90
26990;DHT22;14537;47.788;11.858;2023-03-05T11:52:27;3.00;99.90
26990;DHT22;14537;47.788;11.858;2023-03-05T11:55:16;3.10;99.90
26990;DHT22;14537;47.788;11.858;2023-03-05T11:57:47;3.30;99.90
26990;DHT22;14537;47.788;11.858;2023-03-05T12:00:18;3.50;99.90
26990;DHT22;14537;47.788;11.858;2023-03-05T12:02:49;3.50;99.90
26990;DHT22;14537;47.788;11.858;2023-03-05T12:05:16;3.10;99.90
26990;DHT22;14537;47.788;11.858;2023-03-05T12:07:48;3.10;99.90
26990;DHT22;14537;47.788;11.858;2023-03-05T12:10:22;3.10;99.90
26990;DHT22;14537;47.788;11.858;2023-03-05T12:13:27;3.10;99.90
26990;DHT22;14537;47.788;11.858;2023-03-05T12:16:07;3.00;99.90
26990;DHT22;14537;47.788;11.858;2023-03-05T12:21:40;3.00;99.90
26990;DHT22;14537;47.788;11.858;2023-03-05T12:29:47;3.30;99.90
26990;DHT22;14537;47.788;11.858;2023-03-05T12:35:01;3.40;99.90
26990;DHT22;14537;47.788;11.858;2023-03-05T12:40:00;3.40;99.90
26990;DHT22;14537;47.788;11.858;2023-03-05T12:47:43;3.30;99.90
26990;DHT22;14537;47.788;11.858;2023-03-05T12:55:26;3.10;99.90
26990;DHT22;14537;47.788;11.858;2023-03-05T12:57:57;3.10;99.90
26990;DHT22;14537;47.788;11.858;2023-03-05T13:00:27;3.30;99.90
26990;DHT22;14537;47.788;11.858;2023-03-05T13:02:55;3.20;99.90
26990;DHT22;14537;47.788;11.858;2023-03-05T13:05:29;3.30;99.90
26990;DHT22;14537;47.788;11.858;2023-03-05T13:10:39;3.20;99.90
26990;DHT22;14537;47.788;11.858;2023-03-05T13:13:05;3.10;99.90
26990;DHT22;14537;47.788;11.858;2023-03-05T13:15:31;3.20;99.90
26990;DHT22;14537;47.788;11.858;2023-03-05T13:18:03;3.50;99.90
26990;DHT22;14537;47.788;11.858;2023-03-05T13:20:37;3.60;99.90
26990;DHT22;14537;47.788;11.858;2023-03-05T13:23:17;3.60;99.90
26990;DHT22;14537;47.788;11.858;2023-03-05T13:25:44;3.80;99.90
26990;DHT22;14537;47.788;11.858;2023-03-05T13:28:19;3.50;99.90
26990;DHT22;14537;47.788;11.858;2023-03-05T13:30:51;3.30;99.90
26990;DHT22;14537;47.788;11.858;2023-03-05T13:33:21;3.20;99.90
26990;DHT22;14537;47.788;11.858;2023-03-05T13:35:49;3.20;99.90
26990;DHT22;14537;47.788;11.858;2023-03-05T13:44:01;3.10;99.90
26990;DHT22;14537;47.788;11.858;2023-03-05T13:46:30;3.00;99.90
26990;DHT22;14537;47.788;11.858;2023-03-05T13:48:59;3.00;99.90
26990;DHT22;14537;47.788;11.858;2023-03-05T13:51:42;3.00;99.90
26990;DHT22;14537;47.788;11.858;2023-03-05T13:54:10;3.00;99.90
26990;DHT22;14537;47.788;11.858;2023-03-05T13:56:57;3.10;99.90
26990;DHT22;14537;47.788;11.858;2023-03-05T13:59:26;3.20;99.90
26990;DHT22;14537;47.788;11.858;2023-03-05T14:01:54;3.10;99.90
26990;DHT22;14537;47.788;11.858;2023-03-05T14:04:23;3.10;99.90
26990;DHT22;14537;47.788;11.858;2023-03-05T14:06:57;3.00;99.90
26990;DHT22;14537;47.788;11.858;2023-03-05T14:09:47;2.90;99.90
26990;DHT22;14537;47.788;11.858;2023-03-05T14:12:29;3.00;99.90
26990;DHT22;14537;47.788;11.858;2023-03-05T14:14:56;3.00;99.90
26990;DHT22;14537;47.788;11.858;2023-03-05T14:17:38;3.10;99.90
26990;DHT22;14537;47.788;11.858;2023-03-05T14:22:37;3.00;99.90
26990;DHT22;14537;47.788;11.858;2023-03-05T14:25:05;3.10;99.90
26990;DHT22;14537;47.788;11.858;2023-03-05T14:27:33;3.10;99.90
26990;DHT22;14537;47.788;11.858;2023-03-05T14:30:01;3.00;99.90
26990;DHT22;14537;47.788;11.858;2023-03-05T14:32:28;2.90;99.90
26990;DHT22;14537;47.788;11.858;2023-03-05T14:34:57;2.80;99.90
26990;DHT22;14537;47.788;11.858;2023-03-05T14:37:35;2.70;99.90
26990;DHT22;14537;47.788;11.858;2023-03-05T14:40:06;2.60;99.90
26990;DHT22;14537;47.788;11.858;2023-03-05T14:43:00;2.60;99.90
26990;DHT22;14537;47.788;11.858;2023-03-05T14:45:31;2.70;99.90
26990;DHT22;14537;47.788;11.858;2023-03-05T14:47:59;2.80;99.90
26990;DHT22;14537;47.788;11.858;2023-03-05T14:50:27;2.70;99.90
26990;DHT22;14537;47.788;11.858;2023-03-05T14:53:02;2.80;99.90
26990;DHT22;14537;47.788;11.858;2023-03-05T14:55:31;2.70;99.90
26990;DHT22;14537;47.788;11.858;2023-03-05T14:58:06;2.70;99.90
26990;DHT22;14537;47.788;11.858;2023-03-05T15:00:35;2.70;99.90
26990;DHT22;14537;47.788;11.858;2023-03-05T15:03:00;2.60;99.90
26990;DHT22;14537;47.788;11.858;2023-03-05T15:05:26;2.70;99.90
26990;DHT22;14537;47.788;11.858;2023-03-05T15:07:52;2.90;99.90
26990;DHT22;14537;47.788;11.858;2023-03-05T15:10:20;2.90;99.90
26990;DHT22;14537;47.788;11.858;2023-03-05T15:12:46;2.80;99.90
26990;DHT22;14537;47.788;11.858;2023-03-05T15:15:15;2.70;99.90
26990;DHT22;14537;47.788;11.858;2023-03-05T15:17:43;2.70;99.90
26990;DHT22;14537;47.788;11.858;2023-03-05T15:20:18;2.70;99.90
26990;DHT22;14537;47.788;11.858;2023-03-05T15:22:44;2.70;99.90
26990;DHT22;14537;47.788;11.858;2023-03-05T15:25:10;2.70;99.90
26990;DHT22;14537;47.788;11.858;2023-03-05T15:27:36;2.60;99.90
26990;DHT22;14537;47.788;11.858;2023-03-05T15:30:03;2.50;99.90
26990;DHT22;14537;47.788;11.858;2023-03-05T15:32:29;2.40;99.90
26990;DHT22;14537;47.788;11.858;2023-03-05T15:34:56;2.40;99.90
26990;DHT22;14537;47.788;11.858;2023-03-05T15:37:22;2.50;99.90
26990;DHT22;14537;47.788;11.858;2023-03-05T15:39:48;2.50;99.90
26990;DHT22;14537;47.788;11.858;2023-03-05T15:42:14;2.40;99.90
26990;DHT22;14537;47.788;11.858;2023-03-05T15:44:40;2.40;99.90
26990;DHT22;14537;47.788;11.858;2023-03-05T15:47:07;2.40;99.90
26990;DHT22;14537;47.788;11.858;2023-03-05T15:49:32;2.30;99.90
26990;DHT22;14537;47.788;11.858;2023-03-05T15:51:58;2.20;99.90
26990;DHT22;14537;47.788;11.858;2023-03-05T15:54:23;2.10;99.90
26990;DHT22;14537;47.788;11.858;2023-03-05T15:56:49;2.30;99.90
26990;DHT22;14537;47.788;11.858;2023-03-05T15:59:16;2.30;99.90
26990;DHT22;14537;47.788;11.858;2023-03-05T16:01:50;2.30;99.90
26990;DHT22;14537;47.788;11.858;2023-03-05T16:04:16;2.30;99.90
26990;DHT22;14537;47.788;11.858;2023-03-05T16:06:46;2.30;99.90
26990;DHT22;14537;47.788;11.858;2023-03-05T16:09:13;2.30;99.90
26990;DHT22;14537;47.788;11.858;2023-03-05T16:11:40;2.20;99.90
26990;DHT22;14537;47.788;11.858;2023-03-05T16:14:12;2.10;99.90
26990;DHT22;14537;47.788;11.858;2023-03-05T16:16:39;2.10;99.90
26990;DHT22;14537;47.788;11.858;2023-03-05T16:19:06;2.10;99.90
26990;DHT22;14537;47.788;11.858;2023-03-05T16:21:33;2.00;99.90
26990;DHT22;14537;47.788;11.858;2023-03-05T16:23:59;2.00;99.90
26990;DHT22;14537;47.788;11.858;2023-03-05T16:26:25;2.00;99.90
26990;DHT22;14537;47.788;11.858;2023-03-05T16:28:51;2.00;99.90
26990;DHT22;14537;47.788;11.858;2023-03-05T16:31:17;2.00;99.90
26990;DHT22;14537;47.788;11.858;2023-03-05T16:33:42;2.10;99.90
26990;DHT22;14537;47.788;11.858;2023-03-05T16:36:24;2.00;99.90
26990;DHT22;14537;47.788;11.858;2023-03-05T16:38:52;2.00;99.90
26990;DHT22;14537;47.788;11.858;2023-03-05T16:41:18;2.10;99.90
26990;DHT22;14537;47.788;11.858;2023-03-05T16:43:45;2.10;99.90
26990;DHT22;14537;47.788;11.858;2023-03-05T16:46:12;1.90;99.90
26990;DHT22;14537;47.788;11.858;2023-03-05T16:48:38;1.90;99.90
26990;DHT22;14537;47.788;11.858;2023-03-05T16:51:05;1.80;99.90
26990;DHT22;14537;47.788;11.858;2023-03-05T16:53:31;1.80;99.90
26990;DHT22;14537;47.788;11.858;2023-03-05T16:56:00;1.70;99.90
26990;DHT22;14537;47.788;11.858;2023-03-05T16:58:26;1.70;99.90
26990;DHT22;14537;47.788;11.858;2023-03-05T17:00:52;1.70;99.90
26990;DHT22;14537;47.788;11.858;2023-03-05T17:03:17;1.70;99.90